sensor_id;sensor_type;location;lat;lon;timestamp;pressure;altitude;pressure_sealevel;temperature;humidity
74544;BME280;63016;55.030;38.710;2022-10-16T00:00:44;101298.44;;;8.98;59.03
74544;BME280;63016;55.030;38.710;2022-10-16T00:03:10;101305.44;;;8.97;58.31
74544;BME280;63016;55.030;38.710;2022-10-16T00:05:41;101278.00;;;8.82;58.14
74544;BME280;63016;55.030;38.710;2022-10-16T00:08:08;101276.47;;;8.80;58.22
74544;BME280;63016;55.030;38.710;2022-10-16T00:10:35;101296.00;;;8.85;58.32
74544;BME280;63016;55.030;38.710;2022-10-16T00:13:01;101302.94;;;8.85;58.38
74544;BME280;63016;55.030;38.710;2022-10-16T00:15:26;101301.44;;;8.82;58.98
74544;BME280;63016;55.030;38.710;2022-10-16T00:17:52;101312.78;;;8.81;58.27
74544;BME280;63016;55.030;38.710;2022-10-16T00:20:18;101310.91;;;8.72;58.13
74544;BME280;63016;55.030;38.710;2022-10-16T00:22:43;101312.78;;;8.70;58.40
74544;BME280;63016;55.030;38.710;2022-10-16T00:25:09;101319.19;;;8.66;57.93
74544;BME280;63016;55.030;38.710;2022-10-16T00:27:34;101300.59;;;8.48;58.53
74544;BME280;63016;55.030;38.710;2022-10-16T00:30:00;101299.06;;;8.45;57.86
74544;BME280;63016;55.030;38.710;2022-10-16T00:32:26;101322.03;;;8.52;58.53
74544;BME280;63016;55.030;38.710;2022-10-16T00:34:51;101319.16;;;8.43;58.17
74544;BME280;63016;55.030;38.710;2022-10-16T00:37:20;101328.13;;;8.39;57.52
74544;BME280;63016;55.030;38.710;2022-10-16T00:39:45;101332.84;;;8.34;58.06
74544;BME280;63016;55.030;38.710;2022-10-16T00:42:16;101329.63;;;8.31;57.69
74544;BME280;63016;55.030;38.710;2022-10-16T00:47:41;101320.78;;;8.22;58.40
74544;BME280;63016;55.030;38.710;2022-10-16T00:50:24;101326.19;;;8.19;57.94
74544;BME280;63016;55.030;38.710;2022-10-16T00:52:52;101329.00;;;8.16;57.98
74544;BME280;63016;55.030;38.710;2022-10-16T00:55:18;101328.84;;;8.06;57.94
74544;BME280;63016;55.030;38.710;2022-10-16T00:57:45;101324.25;;;7.98;57.75
74544;BME280;63016;55.030;38.710;2022-10-16T01:00:14;101329.53;;;7.97;57.99
74544;BME280;63016;55.030;38.710;2022-10-16T01:02:41;101310.72;;;7.82;58.30
74544;BME280;63016;55.030;38.710;2022-10-16T01:05:07;101310.22;;;7.77;58.10
74544;BME280;63016;55.030;38.710;2022-10-16T01:13:08;101333.50;;;7.79;57.49
74544;BME280;63016;55.030;38.710;2022-10-16T01:18:28;101339.47;;;7.68;58.54
74544;BME280;63016;55.030;38.710;2022-10-16T01:21:10;101342.19;;;7.66;58.60
74544;BME280;63016;55.030;38.710;2022-10-16T01:29:21;101346.72;;;7.52;57.77
74544;BME280;63016;55.030;38.710;2022-10-16T01:31:53;101344.63;;;7.57;57.89
74544;BME280;63016;55.030;38.710;2022-10-16T01:37:56;101344.28;;;7.37;57.98
74544;BME280;63016;55.030;38.710;2022-10-16T01:40:27;101344.94;;;7.28;57.98
74544;BME280;63016;55.030;38.710;2022-10-16T01:43:00;101347.22;;;7.20;58.20
74544;BME280;63016;55.030;38.710;2022-10-16T01:45:29;101349.56;;;7.12;58.08
74544;BME280;63016;55.030;38.710;2022-10-16T01:47:57;101353.91;;;7.11;57.83
74544;BME280;63016;55.030;38.710;2022-10-16T01:50:26;101355.16;;;7.06;58.16
74544;BME280;63016;55.030;38.710;2022-10-16T01:52:53;101351.00;;;7.03;58.47
74544;BME280;63016;55.030;38.710;2022-10-16T01:55:29;101344.06;;;6.91;58.14
74544;BME280;63016;55.030;38.710;2022-10-16T01:57:58;101354.13;;;6.95;58.14
74544;BME280;63016;55.030;38.710;2022-10-16T02:00:26;101355.38;;;6.90;58.72
74544;BME280;63016;55.030;38.710;2022-10-16T02:02:53;101364.31;;;6.86;58.33
74544;BME280;63016;55.030;38.710;2022-10-16T02:07:45;101357.06;;;6.78;58.29
74544;BME280;63016;55.030;38.710;2022-10-16T02:10:11;101358.94;;;6.76;58.35
74544;BME280;63016;55.030;38.710;2022-10-16T02:12:39;101362.69;;;6.72;58.22
74544;BME280;63016;55.030;38.710;2022-10-16T02:15:07;101342.13;;;6.56;58.31
74544;BME280;63016;55.030;38.710;2022-10-16T02:17:33;101341.22;;;6.44;58.02
74544;BME280;63016;55.030;38.710;2022-10-16T02:19:59;101370.47;;;6.59;58.05
74544;BME280;63016;55.030;38.710;2022-10-16T02:22:32;101374.91;;;6.57;58.55
74544;BME280;63016;55.030;38.710;2022-10-16T02:25:06;101376.78;;;6.55;58.11
74544;BME280;63016;55.030;38.710;2022-10-16T02:30:39;101372.00;;;6.49;58.51
74544;BME280;63016;55.030;38.710;2022-10-16T02:33:09;101379.28;;;6.44;58.73
74544;BME280;63016;55.030;38.710;2022-10-16T02:35:37;101379.66;;;6.38;58.20
74544;BME280;63016;55.030;38.710;2022-10-16T02:38:04;101379.06;;;6.34;57.91
74544;BME280;63016;55.030;38.710;2022-10-16T02:40:31;101386.00;;;6.34;58.02
74544;BME280;63016;55.030;38.710;2022-10-16T02:42:57;101353.53;;;6.15;58.42
74544;BME280;63016;55.030;38.710;2022-10-16T02:45:23;101382.03;;;6.28;58.66
74544;BME280;63016;55.030;38.710;2022-10-16T02:47:49;101375.50;;;6.23;58.08
74544;BME280;63016;55.030;38.710;2022-10-16T02:50:15;101375.50;;;6.23;58.22
74544;BME280;63016;55.030;38.710;2022-10-16T02:52:40;101386.09;;;6.20;58.39
74544;BME280;63016;55.030;38.710;2022-10-16T02:55:06;101382.09;;;6.14;58.54
74544;BME280;63016;55.030;38.710;2022-10-16T02:57:32;101381.28;;;6.13;58.60
74544;BME280;63016;55.030;38.710;2022-10-16T02:59:58;101383.16;;;6.11;58.08
74544;BME280;63016;55.030;38.710;2022-10-16T03:02:23;101378.06;;;6.10;58.41
74544;BME280;63016;55.030;38.710;2022-10-16T03:04:49;101372.75;;;5.99;58.22
74544;BME280;63016;55.030;38.710;2022-10-16T03:07:14;101390.81;;;6.00;58.43
74544;BME280;63016;55.030;38.710;2022-10-16T03:09:40;101379.16;;;5.93;58.44
74544;BME280;63016;55.030;38.710;2022-10-16T03:12:06;101377.66;;;5.89;58.19
74544;BME280;63016;55.030;38.710;2022-10-16T03:14:32;101394.97;;;5.88;58.23
74544;BME280;63016;55.030;38.710;2022-10-16T03:16:57;101388.13;;;5.87;58.51
74544;BME280;63016;55.030;38.710;2022-10-16T03:19:23;101366.19;;;5.66;58.25
74544;BME280;63016;55.030;38.710;2022-10-16T03:21:48;101376.28;;;5.71;58.15
74544;BME280;63016;55.030;38.710;2022-10-16T03:24:14;101399.25;;;5.75;57.86
74544;BME280;63016;55.030;38.710;2022-10-16T03:26:39;101397.81;;;5.71;58.49
74544;BME280;63016;55.030;38.710;2022-10-16T03:29:05;101393.09;;;5.63;58.39
74544;BME280;63016;55.030;38.710;2022-10-16T03:31:31;101406.06;;;5.63;58.24
74544;BME280;63016;55.030;38.710;2022-10-16T03:33:57;101411.63;;;5.57;58.11
74544;BME280;63016;55.030;38.710;2022-10-16T03:36:22;101406.72;;;5.53;57.86
74544;BME280;63016;55.030;38.710;2022-10-16T03:38:48;101416.34;;;5.51;58.22
74544;BME280;63016;55.030;38.710;2022-10-16T03:41:13;101419.22;;;5.46;58.51
74544;BME280;63016;55.030;38.710;2022-10-16T03:43:39;101420.34;;;5.42;58.22
74544;BME280;63016;55.030;38.710;2022-10-16T03:46:04;101408.03;;;5.31;57.89
74544;BME280;63016;55.030;38.710;2022-10-16T03:48:30;101422.66;;;5.32;57.96
74544;BME280;63016;55.030;38.710;2022-10-16T03:50:55;101427.28;;;5.27;58.07
74544;BME280;63016;55.030;38.710;2022-10-16T03:53:21;101415.19;;;5.13;58.14
74544;BME280;63016;55.030;38.710;2022-10-16T03:55:46;101428.97;;;5.14;58.18
74544;BME280;63016;55.030;38.710;2022-10-16T03:58:12;101426.75;;;5.08;57.87
74544;BME280;63016;55.030;38.710;2022-10-16T04:00:42;101436.63;;;5.01;58.10
74544;BME280;63016;55.030;38.710;2022-10-16T04:03:08;101411.22;;;4.79;58.19
74544;BME280;63016;55.030;38.710;2022-10-16T04:05:33;101437.38;;;4.89;57.84
74544;BME280;63016;55.030;38.710;2022-10-16T04:07:59;101436.69;;;4.85;58.21
74544;BME280;63016;55.030;38.710;2022-10-16T04:10:25;101434.75;;;4.75;58.12
74544;BME280;63016;55.030;38.710;2022-10-16T04:12:50;101438.16;;;4.75;58.36
74544;BME280;63016;55.030;38.710;2022-10-16T04:15:16;101432.25;;;4.73;58.27
74544;BME280;63016;55.030;38.710;2022-10-16T04:17:41;101430.69;;;4.71;58.48
74544;BME280;63016;55.030;38.710;2022-10-16T04:20:07;101410.97;;;4.54;58.49
74544;BME280;63016;55.030;38.710;2022-10-16T04:22:33;101437.78;;;4.67;58.34
74544;BME280;63016;55.030;38.710;2022-10-16T04:24:58;101431.94;;;4.63;58.37
74544;BME280;63016;55.030;38.710;2022-10-16T04:27:24;101420.31;;;4.56;58.33
74544;BME280;63016;55.030;38.710;2022-10-16T04:29:50;101427.16;;;4.57;58.54
74544;BME280;63016;55.030;38.710;2022-10-16T04:32:15;101429.81;;;4.56;58.59
74544;BME280;63016;55.030;38.710;2022-10-16T04:34:41;101436.00;;;4.53;58.24
74544;BME280;63016;55.030;38.710;2022-10-16T04:37:06;101443.13;;;4.50;58.38
74544;BME280;63016;55.030;38.710;2022-10-16T04:39:32;101438.09;;;4.47;58.58
74544;BME280;63016;55.030;38.710;2022-10-16T04:41:57;101427.56;;;4.35;58.60
74544;BME280;63016;55.030;38.710;2022-10-16T04:44:23;101440.69;;;4.47;59.04
74544;BME280;63016;55.030;38.710;2022-10-16T04:46:50;101440.97;;;4.42;58.96
74544;BME280;63016;55.030;38.710;2022-10-16T04:49:16;101446.78;;;4.46;59.17
74544;BME280;63016;55.030;38.710;2022-10-16T04:51:42;101435.88;;;4.41;59.21
74544;BME280;63016;55.030;38.710;2022-10-16T04:54:25;101449.84;;;4.52;59.31
74544;BME280;63016;55.030;38.710;2022-10-16T04:56:50;101450.66;;;4.53;59.35
74544;BME280;63016;55.030;38.710;2022-10-16T04:59:18;101440.44;;;4.51;59.63
74544;BME280;63016;55.030;38.710;2022-10-16T05:01:44;101438.50;;;4.55;59.23
74544;BME280;63016;55.030;38.710;2022-10-16T05:04:10;101423.44;;;4.47;59.48
74544;BME280;63016;55.030;38.710;2022-10-16T05:06:36;101447.38;;;4.65;59.41
74544;BME280;63016;55.030;38.710;2022-10-16T05:09:04;101453.13;;;4.70;59.83
74544;BME280;63016;55.030;38.710;2022-10-16T05:11:30;101446.84;;;4.74;59.82
74544;BME280;63016;55.030;38.710;2022-10-16T05:13:55;101450.00;;;4.79;59.74
74544;BME280;63016;55.030;38.710;2022-10-16T05:16:21;101443.16;;;4.78;60.01
74544;BME280;63016;55.030;38.710;2022-10-16T05:18:46;101451.28;;;4.86;59.68
74544;BME280;63016;55.030;38.710;2022-10-16T05:21:12;101437.91;;;4.80;59.74
74544;BME280;63016;55.030;38.710;2022-10-16T05:23:37;101447.59;;;4.90;59.75
74544;BME280;63016;55.030;38.710;2022-10-16T05:26:03;101452.63;;;4.94;59.49
74544;BME280;63016;55.030;38.710;2022-10-16T05:28:29;101456.66;;;4.98;59.84
74544;BME280;63016;55.030;38.710;2022-10-16T05:30:56;101454.00;;;4.99;59.84
74544;BME280;63016;55.030;38.710;2022-10-16T05:33:23;101462.22;;;5.06;59.97
74544;BME280;63016;55.030;38.710;2022-10-16T05:35:49;101467.22;;;5.09;59.66
74544;BME280;63016;55.030;38.710;2022-10-16T05:38:15;101463.53;;;5.13;59.94
74544;BME280;63016;55.030;38.710;2022-10-16T05:40:41;101450.09;;;5.06;59.96
74544;BME280;63016;55.030;38.710;2022-10-16T05:43:07;101464.69;;;5.22;59.97
74544;BME280;63016;55.030;38.710;2022-10-16T05:45:32;101465.56;;;5.22;59.90
74544;BME280;63016;55.030;38.710;2022-10-16T05:47:58;101467.41;;;5.34;60.11
74544;BME280;63016;55.030;38.710;2022-10-16T05:50:24;101466.28;;;5.38;60.01
74544;BME280;63016;55.030;38.710;2022-10-16T05:52:50;101471.09;;;5.45;60.14
74544;BME280;63016;55.030;38.710;2022-10-16T05:55:18;101477.56;;;5.52;59.99
74544;BME280;63016;55.030;38.710;2022-10-16T05:57:44;101451.47;;;5.40;59.88
74544;BME280;63016;55.030;38.710;2022-10-16T06:00:10;101469.31;;;5.59;60.09
74544;BME280;63016;55.030;38.710;2022-10-16T06:02:35;101482.44;;;5.71;59.87
74544;BME280;63016;55.030;38.710;2022-10-16T06:05:01;101463.66;;;5.67;60.07
74544;BME280;63016;55.030;38.710;2022-10-16T06:07:26;101475.94;;;5.78;60.62
74544;BME280;63016;55.030;38.710;2022-10-16T06:09:52;101489.63;;;5.94;60.45
74544;BME280;63016;55.030;38.710;2022-10-16T06:12:19;101467.34;;;5.91;60.44
74544;BME280;63016;55.030;38.710;2022-10-16T06:14:45;101487.81;;;6.09;60.15
74544;BME280;63016;55.030;38.710;2022-10-16T06:17:13;101483.16;;;6.14;60.45
74544;BME280;63016;55.030;38.710;2022-10-16T06:19:39;101487.41;;;6.29;60.34
74544;BME280;63016;55.030;38.710;2022-10-16T06:22:05;101477.09;;;6.28;60.01
74544;BME280;63016;55.030;38.710;2022-10-16T06:24:30;101481.91;;;6.34;60.28
74544;BME280;63016;55.030;38.710;2022-10-16T06:26:56;101489.63;;;6.48;59.82
74544;BME280;63016;55.030;38.710;2022-10-16T06:29:21;101494.00;;;6.60;60.02
74544;BME280;63016;55.030;38.710;2022-10-16T06:31:47;101491.81;;;6.67;59.95
74544;BME280;63016;55.030;38.710;2022-10-16T06:34:12;101490.81;;;6.69;59.48
74544;BME280;63016;55.030;38.710;2022-10-16T06:36:38;101493.63;;;6.79;60.07
74544;BME280;63016;55.030;38.710;2022-10-16T06:39:04;101479.63;;;6.82;59.70
74544;BME280;63016;55.030;38.710;2022-10-16T06:41:30;101501.84;;;6.99;60.17
74544;BME280;63016;55.030;38.710;2022-10-16T06:43:56;101495.22;;;7.07;60.48
74544;BME280;63016;55.030;38.710;2022-10-16T06:46:24;101494.66;;;7.15;60.31
74544;BME280;63016;55.030;38.710;2022-10-16T06:48:49;101498.41;;;7.24;60.46
74544;BME280;63016;55.030;38.710;2022-10-16T06:51:17;101498.84;;;7.30;60.34
74544;BME280;63016;55.030;38.710;2022-10-16T06:53:45;101494.88;;;7.37;59.97
74544;BME280;63016;55.030;38.710;2022-10-16T06:56:14;101499.56;;;7.45;60.34
74544;BME280;63016;55.030;38.710;2022-10-16T06:58:40;101507.53;;;7.55;60.35
74544;BME280;63016;55.030;38.710;2022-10-16T07:01:06;101500.84;;;7.63;60.41
74544;BME280;63016;55.030;38.710;2022-10-16T07:03:32;101506.25;;;7.73;60.39
74544;BME280;63016;55.030;38.710;2022-10-16T07:06:04;101509.97;;;7.82;59.91
74544;BME280;63016;55.030;38.710;2022-10-16T07:08:34;101505.69;;;7.93;60.87
74544;BME280;63016;55.030;38.710;2022-10-16T07:11:01;101505.75;;;8.05;60.24
74544;BME280;63016;55.030;38.710;2022-10-16T07:13:27;101510.06;;;8.17;60.31
74544;BME280;63016;55.030;38.710;2022-10-16T07:15:53;101505.75;;;8.29;60.24
74544;BME280;63016;55.030;38.710;2022-10-16T07:18:18;101517.19;;;8.39;60.53
74544;BME280;63016;55.030;38.710;2022-10-16T07:20:44;101522.41;;;8.50;60.44
74544;BME280;63016;55.030;38.710;2022-10-16T07:23:09;101524.00;;;8.64;60.13
74544;BME280;63016;55.030;38.710;2022-10-16T07:25:35;101498.31;;;8.59;60.93
74544;BME280;63016;55.030;38.710;2022-10-16T07:28:01;101509.63;;;8.82;60.32
74544;BME280;63016;55.030;38.710;2022-10-16T07:30:26;101520.94;;;9.05;60.46
74544;BME280;63016;55.030;38.710;2022-10-16T07:32:52;101521.44;;;9.21;60.70
74544;BME280;63016;55.030;38.710;2022-10-16T07:35:17;101512.91;;;9.31;60.41
74544;BME280;63016;55.030;38.710;2022-10-16T07:37:46;101522.03;;;9.47;60.41
74544;BME280;63016;55.030;38.710;2022-10-16T07:40:12;101518.47;;;9.60;60.00
74544;BME280;63016;55.030;38.710;2022-10-16T07:42:38;101508.16;;;9.69;60.30
74544;BME280;63016;55.030;38.710;2022-10-16T07:45:04;101509.69;;;9.83;60.62
74544;BME280;63016;55.030;38.710;2022-10-16T07:47:29;101503.16;;;9.89;60.22
74544;BME280;63016;55.030;38.710;2022-10-16T07:49:55;101515.81;;;10.04;59.48
74544;BME280;63016;55.030;38.710;2022-10-16T07:52:20;101489.72;;;10.04;60.36
74544;BME280;63016;55.030;38.710;2022-10-16T07:54:46;101517.78;;;10.23;60.19
74544;BME280;63016;55.030;38.710;2022-10-16T07:57:11;101512.66;;;10.33;59.63
74544;BME280;63016;55.030;38.710;2022-10-16T07:59:43;101496.44;;;10.29;60.22
74544;BME280;63016;55.030;38.710;2022-10-16T08:02:09;101512.72;;;10.54;59.68
74544;BME280;63016;55.030;38.710;2022-10-16T08:04:34;101514.56;;;10.63;59.78
74544;BME280;63016;55.030;38.710;2022-10-16T08:07:00;101514.75;;;10.71;59.76
74544;BME280;63016;55.030;38.710;2022-10-16T08:09:25;101514.13;;;10.79;59.19
74544;BME280;63016;55.030;38.710;2022-10-16T08:11:51;101518.59;;;10.88;59.27
74544;BME280;63016;55.030;38.710;2022-10-16T08:14:17;101508.84;;;10.90;59.08
74544;BME280;63016;55.030;38.710;2022-10-16T08:16:43;101510.69;;;10.99;59.44
74544;BME280;63016;55.030;38.710;2022-10-16T08:19:08;101507.84;;;11.02;59.29
74544;BME280;63016;55.030;38.710;2022-10-16T08:21:34;101516.41;;;11.14;59.29
74544;BME280;63016;55.030;38.710;2022-10-16T08:23:59;101511.75;;;11.18;59.03
74544;BME280;63016;55.030;38.710;2022-10-16T08:26:26;101501.03;;;11.21;59.02
74544;BME280;63016;55.030;38.710;2022-10-16T08:28:52;101512.34;;;11.31;59.24
74544;BME280;63016;55.030;38.710;2022-10-16T08:31:18;101504.25;;;11.34;58.92
74544;BME280;63016;55.030;38.710;2022-10-16T08:33:45;101508.72;;;11.43;59.28
74544;BME280;63016;55.030;38.710;2022-10-16T08:36:14;101509.00;;;11.50;58.73
74544;BME280;63016;55.030;38.710;2022-10-16T08:38:39;101510.13;;;11.57;59.02
74544;BME280;63016;55.030;38.710;2022-10-16T08:49:03;101502.50;;;11.75;58.55
74544;BME280;63016;55.030;38.710;2022-10-16T08:51:35;101509.91;;;11.79;58.79
74544;BME280;63016;55.030;38.710;2022-10-16T08:56:44;101497.75;;;11.90;58.82
74544;BME280;63016;55.030;38.710;2022-10-16T08:59:10;101508.34;;;11.98;58.52
74544;BME280;63016;55.030;38.710;2022-10-16T09:01:44;101498.44;;;12.01;58.38
74544;BME280;63016;55.030;38.710;2022-10-16T09:04:30;101511.69;;;12.09;58.73
74544;BME280;63016;55.030;38.710;2022-10-16T09:07:04;101503.03;;;12.19;58.75
74544;BME280;63016;55.030;38.710;2022-10-16T09:09:47;101502.59;;;12.23;58.30
74544;BME280;63016;55.030;38.710;2022-10-16T09:12:23;101489.53;;;12.23;58.57
74544;BME280;63016;55.030;38.710;2022-10-16T09:17:59;101500.25;;;12.49;58.05
74544;BME280;63016;55.030;38.710;2022-10-16T09:20:38;101480.41;;;12.37;57.64
74544;BME280;63016;55.030;38.710;2022-10-16T09:23:25;101508.69;;;12.53;57.70
74544;BME280;63016;55.030;38.710;2022-10-16T09:25:52;101491.03;;;12.45;57.98
74544;BME280;63016;55.030;38.710;2022-10-16T09:28:18;101495.84;;;12.50;57.84
74544;BME280;63016;55.030;38.710;2022-10-16T09:30:45;101487.44;;;12.46;57.77
74544;BME280;63016;55.030;38.710;2022-10-16T09:33:12;101499.56;;;12.57;57.66
74544;BME280;63016;55.030;38.710;2022-10-16T09:35:42;101494.31;;;12.57;57.69
74544;BME280;63016;55.030;38.710;2022-10-16T09:38:09;101501.63;;;12.63;57.61
74544;BME280;63016;55.030;38.710;2022-10-16T09:40:45;101475.31;;;12.55;57.71
74544;BME280;63016;55.030;38.710;2022-10-16T09:45:43;101463.19;;;12.54;57.65
74544;BME280;63016;55.030;38.710;2022-10-16T09:48:19;101461.25;;;12.56;57.49
74544;BME280;63016;55.030;38.710;2022-10-16T09:50:56;101493.75;;;12.82;57.06
74544;BME280;63016;55.030;38.710;2022-10-16T09:53:21;101483.00;;;12.76;57.02
74544;BME280;63016;55.030;38.710;2022-10-16T09:55:53;101480.53;;;12.74;56.78
74544;BME280;63016;55.030;38.710;2022-10-16T09:58:22;101480.38;;;12.76;57.19
74544;BME280;63016;55.030;38.710;2022-10-16T10:00:52;101487.38;;;12.85;56.77
74544;BME280;63016;55.030;38.710;2022-10-16T10:05:55;101470.16;;;12.82;57.02
74544;BME280;63016;55.030;38.710;2022-10-16T10:08:21;101468.38;;;12.83;56.93
74544;BME280;63016;55.030;38.710;2022-10-16T10:10:48;101486.53;;;12.94;56.51
74544;BME280;63016;55.030;38.710;2022-10-16T10:13:21;101475.81;;;12.88;56.64
74544;BME280;63016;55.030;38.710;2022-10-16T10:15:48;101460.53;;;12.83;57.01
74544;BME280;63016;55.030;38.710;2022-10-16T10:18:21;101473.03;;;12.89;56.46
74544;BME280;63016;55.030;38.710;2022-10-16T10:21:02;101482.91;;;13.05;57.48
74544;BME280;63016;55.030;38.710;2022-10-16T10:23:29;101466.94;;;12.98;57.24
74544;BME280;63016;55.030;38.710;2022-10-16T10:26:07;101473.38;;;13.13;57.31
74544;BME280;63016;55.030;38.710;2022-10-16T10:36:43;101460.00;;;13.17;56.49
74544;BME280;63016;55.030;38.710;2022-10-16T10:39:18;101455.19;;;13.22;56.28
74544;BME280;63016;55.030;38.710;2022-10-16T10:47:38;101457.91;;;13.30;56.49
74544;BME280;63016;55.030;38.710;2022-10-16T10:50:20;101445.38;;;13.24;56.42
74544;BME280;63016;55.030;38.710;2022-10-16T10:58:10;101466.16;;;13.35;56.41
74544;BME280;63016;55.030;38.710;2022-10-16T11:03:58;101467.38;;;13.41;56.85
74544;BME280;63016;55.030;38.710;2022-10-16T11:09:09;101452.66;;;13.30;56.39
74544;BME280;63016;55.030;38.710;2022-10-16T11:11:57;101462.19;;;13.31;56.93
74544;BME280;63016;55.030;38.710;2022-10-16T11:14:35;101444.41;;;13.25;55.99
74544;BME280;63016;55.030;38.710;2022-10-16T11:19:53;101475.38;;;13.39;55.47
74544;BME280;63016;55.030;38.710;2022-10-16T11:22:30;101484.38;;;13.36;55.45
74544;BME280;63016;55.030;38.710;2022-10-16T11:27:45;101474.03;;;13.35;56.20
74544;BME280;63016;55.030;38.710;2022-10-16T11:30:24;101469.06;;;13.32;56.35
74544;BME280;63016;55.030;38.710;2022-10-16T11:36:12;101478.69;;;13.41;56.13
74544;BME280;63016;55.030;38.710;2022-10-16T11:38:45;101458.75;;;13.30;55.71
74544;BME280;63016;55.030;38.710;2022-10-16T11:41:23;101474.44;;;13.40;55.64
74544;BME280;63016;55.030;38.710;2022-10-16T11:46:50;101466.25;;;13.43;55.74
74544;BME280;63016;55.030;38.710;2022-10-16T11:49:24;101474.00;;;13.45;55.31
74544;BME280;63016;55.030;38.710;2022-10-16T11:52:02;101463.78;;;13.42;55.16
74544;BME280;63016;55.030;38.710;2022-10-16T11:54:45;101461.97;;;13.42;55.43
74544;BME280;63016;55.030;38.710;2022-10-16T11:57:42;101463.34;;;13.46;56.89
74544;BME280;63016;55.030;38.710;2022-10-16T12:00:28;101456.84;;;13.50;56.28
74544;BME280;63016;55.030;38.710;2022-10-16T12:05:49;101446.34;;;13.50;55.24
74544;BME280;63016;55.030;38.710;2022-10-16T12:08:18;101441.09;;;13.50;55.63
74544;BME280;63016;55.030;38.710;2022-10-16T12:10:48;101445.53;;;13.50;56.35
74544;BME280;63016;55.030;38.710;2022-10-16T12:13:38;101446.03;;;13.53;56.11
74544;BME280;63016;55.030;38.710;2022-10-16T12:16:06;101447.03;;;13.52;55.43
74544;BME280;63016;55.030;38.710;2022-10-16T12:18:33;101434.72;;;13.53;55.88
74544;BME280;63016;55.030;38.710;2022-10-16T12:20:59;101435.44;;;13.55;55.55
74544;BME280;63016;55.030;38.710;2022-10-16T12:23:30;101432.66;;;13.56;55.58
74544;BME280;63016;55.030;38.710;2022-10-16T12:25:58;101429.22;;;13.56;55.53
74544;BME280;63016;55.030;38.710;2022-10-16T12:28:28;101440.69;;;13.55;55.07
74544;BME280;63016;55.030;38.710;2022-10-16T12:31:06;101432.09;;;13.53;55.00
74544;BME280;63016;55.030;38.710;2022-10-16T12:33:41;101437.34;;;13.53;55.67
74544;BME280;63016;55.030;38.710;2022-10-16T12:36:14;101431.16;;;13.54;54.98
74544;BME280;63016;55.030;38.710;2022-10-16T12:38:51;101434.72;;;13.53;55.09
74544;BME280;63016;55.030;38.710;2022-10-16T12:41:27;101432.09;;;13.53;55.17
74544;BME280;63016;55.030;38.710;2022-10-16T12:43:53;101425.06;;;13.53;55.22
74544;BME280;63016;55.030;38.710;2022-10-16T12:48:45;101416.53;;;13.51;55.31
74544;BME280;63016;55.030;38.710;2022-10-16T12:51:33;101418.19;;;13.52;55.32
74544;BME280;63016;55.030;38.710;2022-10-16T13:05:08;101414.13;;;13.40;54.46
74544;BME280;63016;55.030;38.710;2022-10-16T13:08:15;101414.69;;;13.34;55.77
74544;BME280;63016;55.030;38.710;2022-10-16T13:21:57;101404.97;;;13.17;55.07
74544;BME280;63016;55.030;38.710;2022-10-16T13:30:28;101422.38;;;13.08;55.24
74544;BME280;63016;55.030;38.710;2022-10-16T13:33:18;101417.97;;;13.08;57.57
74544;BME280;63016;55.030;38.710;2022-10-16T13:35:58;101413.41;;;13.10;55.43
74544;BME280;63016;55.030;38.710;2022-10-16T13:38:30;101413.69;;;13.07;55.06
74544;BME280;63016;55.030;38.710;2022-10-16T13:46:02;101409.47;;;12.97;54.94
74544;BME280;63016;55.030;38.710;2022-10-16T13:48:29;101391.59;;;12.82;54.64
74544;BME280;63016;55.030;38.710;2022-10-16T13:53:25;101409.38;;;12.79;54.83
74544;BME280;63016;55.030;38.710;2022-10-16T13:55:50;101382.16;;;12.62;54.71
74544;BME280;63016;55.030;38.710;2022-10-16T13:58:16;101412.84;;;12.70;54.76
74544;BME280;63016;55.030;38.710;2022-10-16T14:00:54;101402.25;;;12.61;54.96
74544;BME280;63016;55.030;38.710;2022-10-16T14:03:20;101415.75;;;12.67;55.22
74544;BME280;63016;55.030;38.710;2022-10-16T14:05:52;101419.63;;;12.63;54.96
74544;BME280;63016;55.030;38.710;2022-10-16T14:08:18;101412.19;;;12.58;54.60
74544;BME280;63016;55.030;38.710;2022-10-16T14:10:49;101408.22;;;12.44;54.66
74544;BME280;63016;55.030;38.710;2022-10-16T14:13:20;101418.69;;;12.44;54.62
74544;BME280;63016;55.030;38.710;2022-10-16T14:15:51;101417.75;;;12.35;54.60
74544;BME280;63016;55.030;38.710;2022-10-16T14:18:22;101422.72;;;12.29;54.72
74544;BME280;63016;55.030;38.710;2022-10-16T14:20:49;101411.44;;;12.19;54.97
74544;BME280;63016;55.030;38.710;2022-10-16T14:23:34;101407.03;;;12.09;55.04
74544;BME280;63016;55.030;38.710;2022-10-16T14:28:38;101412.25;;;11.90;54.55
74544;BME280;63016;55.030;38.710;2022-10-16T14:33:45;101404.22;;;11.63;54.82
74544;BME280;63016;55.030;38.710;2022-10-16T14:36:14;101423.72;;;11.58;54.85
74544;BME280;63016;55.030;38.710;2022-10-16T14:38:49;101421.34;;;11.46;54.57
74544;BME280;63016;55.030;38.710;2022-10-16T14:41:20;101419.97;;;11.32;54.94
74544;BME280;63016;55.030;38.710;2022-10-16T14:43:51;101422.66;;;11.21;54.60
74544;BME280;63016;55.030;38.710;2022-10-16T14:46:20;101424.94;;;11.04;54.57
74544;BME280;63016;55.030;38.710;2022-10-16T14:48:50;101425.97;;;10.92;54.68
74544;BME280;63016;55.030;38.710;2022-10-16T14:51:17;101428.09;;;10.77;54.37
74544;BME280;63016;55.030;38.710;2022-10-16T14:53:44;101433.78;;;10.62;54.57
74544;BME280;63016;55.030;38.710;2022-10-16T14:56:18;101429.28;;;10.64;61.09
74544;BME280;63016;55.030;38.710;2022-10-16T14:58:44;101437.16;;;11.04;59.44
74544;BME280;63016;55.030;38.710;2022-10-16T15:01:10;101426.34;;;11.09;55.19